Time;durP1;ratioP1;P1;durP2;ratioP2;P2;SDS_P1;SDS_P2;PMS_P1;PMS_P2;Temp;Humidity;BMP_temperature;BMP_pressure;BME280_temperature;BME280_humidity;BME280_pressure;Samples;Min_cycle;Max_cycle;Signal;HPM_P1;HPM_P2
2021/04/08 00:01:44;;;;;;;7.67;2.03;;;4.10;99.90;;;;;;4979639;28;22778;-64
2021/04/08 00:04:17;;;;;;;7.33;1.97;;;4.00;99.90;;;;;;4995546;28;20702;-64
2021/04/08 00:06:43;;;;;;;4.97;2.03;;;4.10;99.90;;;;;;4991229;28;20240;-64
2021/04/08 00:09:24;;;;;;;8.47;2.20;;;4.00;99.90;;;;;;4999512;28;20766;-66
2021/04/08 00:12:03;;;;;;;6.80;2.30;;;4.00;99.90;;;;;;4975077;28;20343;-66
2021/04/08 00:14:31;;;;;;;5.80;2.13;;;4.00;99.90;;;;;;4987775;28;21763;-63
2021/04/08 00:17:01;;;;;;;10.40;1.77;;;3.90;99.90;;;;;;4993868;28;20658;-66
2021/04/08 00:19:27;;;;;;;5.60;1.67;;;4.00;99.90;;;;;;4976333;28;20764;-64
2021/04/08 00:21:55;;;;;;;8.97;1.90;;;4.10;99.90;;;;;;4989935;28;23168;-64
2021/04/08 00:24:26;;;;;;;6.67;2.10;;;4.10;99.90;;;;;;4998464;28;20749;-64
2021/04/08 00:27:06;;;;;;;4.57;2.00;;;4.10;99.90;;;;;;4986929;28;21200;-66
2021/04/08 00:29:45;;;;;;;8.57;2.83;;;4.10;99.90;;;;;;5000442;28;20784;-65
2021/04/08 00:32:15;;;;;;;10.03;2.70;;;4.10;99.90;;;;;;4994124;28;20705;-68
2021/04/08 00:34:43;;;;;;;6.43;1.87;;;4.10;99.90;;;;;;4988361;28;20623;-64
2021/04/08 00:37:17;;;;;;;7.73;1.70;;;4.10;99.90;;;;;;4993184;28;20715;-65
2021/04/08 00:39:46;;;;;;;7.07;2.43;;;4.00;99.90;;;;;;5000206;28;20636;-66
2021/04/08 00:42:14;;;;;;;6.97;3.20;;;4.00;99.90;;;;;;4990547;28;20637;-65
2021/04/08 00:44:40;;;;;;;6.67;2.10;;;4.10;99.90;;;;;;4998525;28;20618;-64
2021/04/08 00:47:08;;;;;;;6.93;1.87;;;4.10;99.90;;;;;;4994303;28;21379;-65
2021/04/08 00:49:53;;;;;;;7.80;2.13;;;4.10;99.90;;;;;;4994665;28;20432;-65
2021/04/08 00:52:29;;;;;;;9.37;2.23;;;4.10;99.90;;;;;;4981370;28;21448;-66
2021/04/08 00:55:02;;;;;;;7.33;2.80;;;4.00;99.90;;;;;;4994220;28;20765;-65
2021/04/08 00:57:41;;;;;;;11.40;2.70;;;4.10;99.90;;;;;;4995122;28;20654;-65
2021/04/08 01:00:10;;;;;;;7.13;2.00;;;4.20;99.90;;;;;;4998655;28;20619;-64
2021/04/08 01:02:37;;;;;;;12.37;2.10;;;4.10;99.90;;;;;;4977687;28;20689;-65
2021/04/08 01:05:12;;;;;;;5.20;1.93;;;4.00;99.90;;;;;;4977329;28;21385;-65
2021/04/08 01:07:39;;;;;;;4.90;1.73;;;4.10;99.90;;;;;;4994413;28;22236;-66
2021/04/08 01:10:09;;;;;;;9.93;2.43;;;4.10;99.90;;;;;;4978888;28;20649;-65
2021/04/08 01:12:35;;;;;;;7.03;2.07;;;4.10;99.90;;;;;;4993972;28;20623;-65
2021/04/08 01:15:18;;;;;;;7.23;2.03;;;4.00;99.90;;;;;;4976551;28;20615;-65
2021/04/08 01:18:23;;;;;;;8.70;2.60;;;4.00;99.90;;;;;;4992701;28;20299;-65
2021/04/08 01:21:31;;;;;;;5.60;2.37;;;4.00;99.90;;;;;;5004537;28;20691;-64
2021/04/08 01:24:58;;;;;;;7.23;2.23;;;4.00;99.90;;;;;;4996207;28;20649;-66
2021/04/08 01:28:02;;;;;;;11.77;2.50;;;4.00;99.90;;;;;;4969007;28;20761;-66
2021/04/08 01:30:53;;;;;;;5.00;2.00;;;4.00;99.90;;;;;;4995578;28;20665;-66
2021/04/08 01:33:23;;;;;;;7.80;2.30;;;4.00;99.90;;;;;;5000681;28;21944;-66
2021/04/08 01:36:08;;;;;;;5.00;2.10;;;4.10;99.90;;;;;;4987113;28;21421;-66
2021/04/08 01:38:51;;;;;;;8.47;2.40;;;4.10;99.90;;;;;;4987476;28;20692;-66
2021/04/08 01:41:33;;;;;;;7.17;1.93;;;4.10;99.90;;;;;;4996221;28;20691;-66
2021/04/08 01:44:08;;;;;;;7.93;2.30;;;4.10;99.90;;;;;;4992417;28;20734;-66
2021/04/08 01:46:38;;;;;;;7.77;2.63;;;4.20;99.90;;;;;;4985028;28;20660;-66
2021/04/08 01:49:13;;;;;;;10.87;2.00;;;4.10;99.90;;;;;;5028480;28;20600;-66
2021/04/08 01:51:48;;;;;;;9.20;2.30;;;4.10;99.90;;;;;;5008731;28;20701;-66
2021/04/08 01:54:18;;;;;;;8.40;2.97;;;4.10;99.90;;;;;;4982914;28;20614;-66
2021/04/08 01:56:56;;;;;;;7.77;2.40;;;4.00;99.90;;;;;;5004864;28;21025;-66
2021/04/08 01:59:25;;;;;;;10.63;1.93;;;4.10;99.90;;;;;;5009948;28;20680;-66
2021/04/08 02:01:54;;;;;;;8.77;1.83;;;4.10;99.90;;;;;;5010809;28;20833;-66
2021/04/08 02:04:41;;;;;;;7.37;1.53;;;4.10;99.90;;;;;;5008605;28;21006;-66
2021/04/08 02:09:56;;;;;;;5.00;2.10;;;4.00;99.90;;;;;;4992747;28;21274;-67
2021/04/08 02:12:23;;;;;;;5.03;1.90;;;4.00;99.90;;;;;;4993782;28;20801;-66
2021/04/08 02:14:52;;;;;;;7.13;1.67;;;4.00;99.90;;;;;;4993285;28;21406;-66
2021/04/08 02:17:22;;;;;;;3.30;1.37;;;4.00;99.90;;;;;;4974509;28;20790;-65
2021/04/08 02:19:49;;;;;;;4.90;1.57;;;3.90;99.90;;;;;;4981777;28;20626;-65
2021/04/08 02:22:23;;;;;;;5.50;1.30;;;3.90;99.90;;;;;;4971729;28;20701;-65
2021/04/08 02:24:54;;;;;;;4.33;1.70;;;4.00;99.90;;;;;;4972146;28;20591;-65
2021/04/08 02:27:43;;;;;;;3.23;1.67;;;3.90;99.90;;;;;;4975867;28;22978;-64
2021/04/08 02:30:19;;;;;;;4.73;1.33;;;3.80;99.90;;;;;;4981903;28;20651;-66
2021/04/08 02:32:51;;;;;;;8.90;1.63;;;3.80;99.90;;;;;;4972845;28;20650;-64
2021/04/08 02:35:58;;;;;;;8.83;1.77;;;3.80;99.90;;;;;;5002817;28;20650;-66
2021/04/08 02:38:34;;;;;;;7.60;1.83;;;3.80;99.90;;;;;;4996794;28;20610;-65
2021/04/08 02:41:15;;;;;;;5.00;1.40;;;3.80;99.90;;;;;;4999269;28;21133;-64
2021/04/08 02:43:47;;;;;;;7.70;1.60;;;3.60;99.90;;;;;;4981977;28;20681;-65
2021/04/08 02:46:22;;;;;;;6.23;1.70;;;3.60;99.90;;;;;;4990009;28;20739;-65
2021/04/08 02:48:56;;;;;;;6.03;1.60;;;3.60;99.90;;;;;;4980950;28;21249;-65
2021/04/08 02:51:40;;;;;;;5.67;1.63;;;3.60;99.90;;;;;;4992985;28;20681;-64
2021/04/08 02:54:32;;;;;;;7.37;1.80;;;3.60;99.90;;;;;;4975385;28;20619;-64
2021/04/08 02:57:02;;;;;;;6.47;1.57;;;3.60;99.90;;;;;;4973401;28;20689;-65
2021/04/08 03:00:06;;;;;;;7.10;1.87;;;3.50;99.90;;;;;;4974958;28;21293;-65
2021/04/08 03:02:34;;;;;;;8.93;2.00;;;3.50;99.90;;;;;;4970931;28;20661;-65
2021/04/08 03:05:14;;;;;;;7.00;2.17;;;3.50;99.90;;;;;;4977147;28;21616;-66
2021/04/08 03:07:50;;;;;;;4.77;2.00;;;3.60;99.90;;;;;;4975682;28;20677;-66
2021/04/08 03:10:28;;;;;;;4.73;1.70;;;3.50;99.90;;;;;;4973349;28;20716;-66
2021/04/08 03:12:59;;;;;;;8.10;2.00;;;3.50;99.90;;;;;;4976484;28;20650;-66
2021/04/08 03:15:31;;;;;;;10.00;1.70;;;3.70;99.90;;;;;;4957057;28;20634;-66
2021/04/08 03:18:05;;;;;;;5.77;1.60;;;3.70;99.90;;;;;;4972499;28;20659;-66
2021/04/08 03:20:31;;;;;;;9.33;2.10;;;3.70;99.90;;;;;;4962662;28;20682;-65
2021/04/08 03:23:02;;;;;;;5.93;1.60;;;3.80;99.90;;;;;;4983425;28;21438;-64
2021/04/08 03:25:35;;;;;;;5.67;1.73;;;3.80;99.90;;;;;;4976559;28;20919;-63
2021/04/08 03:28:04;;;;;;;4.30;1.53;;;3.90;99.90;;;;;;4960306;28;20694;-65
2021/04/08 03:30:36;;;;;;;8.97;2.13;;;3.90;99.90;;;;;;4981210;28;20659;-64
2021/04/08 03:33:05;;;;;;;5.40;1.80;;;3.90;99.90;;;;;;4961685;28;22398;-65
2021/04/08 03:35:31;;;;;;;3.93;1.43;;;3.80;99.90;;;;;;4984391;28;20651;-64
2021/04/08 03:38:02;;;;;;;6.43;1.50;;;3.80;99.90;;;;;;4971649;28;21049;-65
2021/04/08 03:40:48;;;;;;;4.13;1.67;;;3.90;99.90;;;;;;4979500;28;20741;-66
2021/04/08 03:43:19;;;;;;;2.73;1.37;;;3.80;99.90;;;;;;4976567;28;23367;-65
2021/04/08 03:45:48;;;;;;;6.60;1.57;;;3.90;99.90;;;;;;4968342;28;20610;-66
2021/04/08 03:48:21;;;;;;;4.40;1.50;;;3.80;99.90;;;;;;4975835;28;20622;-66
2021/04/08 03:50:49;;;;;;;3.87;1.13;;;3.80;99.90;;;;;;4954786;28;20779;-64
2021/04/08 03:53:19;;;;;;;5.63;1.30;;;3.80;99.90;;;;;;4978418;28;20652;-64
2021/04/08 03:55:51;;;;;;;6.47;1.70;;;3.80;99.90;;;;;;4983255;28;20751;-66
2021/04/08 03:58:35;;;;;;;4.30;1.73;;;3.80;99.90;;;;;;4985513;28;20725;-64
2021/04/08 04:03:53;;;;;;;3.10;1.20;;;3.70;99.90;;;;;;5011331;28;20804;-66
2021/04/08 04:06:22;;;;;;;5.03;1.53;;;3.70;99.90;;;;;;5008626;28;20650;-65
2021/04/08 04:08:55;;;;;;;3.90;1.40;;;3.70;99.90;;;;;;4981180;28;20763;-64
2021/04/08 04:11:25;;;;;;;5.00;1.60;;;3.80;99.90;;;;;;5011023;28;20623;-65
2021/04/08 04:13:52;;;;;;;3.17;1.30;;;3.80;99.90;;;;;;5004851;28;23004;-64
2021/04/08 04:16:21;;;;;;;6.10;2.40;;;3.80;99.90;;;;;;4996630;28;20642;-66
2021/04/08 04:18:56;;;;;;;7.13;1.47;;;3.70;99.90;;;;;;4983027;28;20769;-65
2021/04/08 04:21:33;;;;;;;5.83;1.80;;;3.70;99.90;;;;;;4997804;28;20969;-64
2021/04/08 04:24:12;;;;;;;3.77;2.00;;;3.80;99.90;;;;;;4977251;28;21019;-64
2021/04/08 04:26:42;;;;;;;8.70;2.20;;;3.90;99.90;;;;;;4996364;28;20750;-64
2021/04/08 04:29:18;;;;;;;7.20;1.80;;;3.90;99.90;;;;;;4986287;28;20631;-65
2021/04/08 04:31:49;;;;;;;7.73;1.73;;;3.80;99.90;;;;;;4980761;28;21296;-66
2021/04/08 04:34:17;;;;;;;9.40;2.00;;;3.80;99.90;;;;;;4975222;28;20643;-64
2021/04/08 04:36:42;;;;;;;10.03;2.53;;;3.80;99.90;;;;;;4974257;28;20655;-66
2021/04/08 04:39:19;;;;;;;6.73;1.27;;;3.80;99.90;;;;;;4991286;28;20625;-64
2021/04/08 04:41:44;;;;;;;8.00;1.70;;;3.80;99.90;;;;;;4986511;28;20220;-66
2021/04/08 04:44:10;;;;;;;4.60;1.73;;;3.80;99.90;;;;;;4986881;28;20618;-65
2021/04/08 04:46:48;;;;;;;6.83;1.80;;;3.70;99.90;;;;;;4986615;28;20236;-65
2021/04/08 04:49:21;;;;;;;3.87;2.93;;;3.70;99.90;;;;;;4976235;28;20555;-65
2021/04/08 04:51:47;;;;;;;6.37;2.30;;;3.70;99.90;;;;;;4980521;28;21300;-66
2021/04/08 04:54:12;;;;;;;4.60;1.57;;;3.70;99.90;;;;;;4981361;28;20611;-66
2021/04/08 04:56:40;;;;;;;7.33;2.10;;;3.70;99.90;;;;;;4969557;28;20209;-65
2021/04/08 04:59:11;;;;;;;7.40;2.03;;;3.70;99.90;;;;;;4972873;28;20684;-66
2021/04/08 05:01:42;;;;;;;7.43;2.00;;;3.70;99.90;;;;;;4968681;28;20631;-66
2021/04/08 05:04:10;;;;;;;6.20;1.97;;;3.80;99.90;;;;;;4967834;28;22462;-64
2021/04/08 05:06:49;;;;;;;10.57;2.37;;;3.80;99.90;;;;;;4982639;28;20659;-64
2021/04/08 05:09:17;;;;;;;9.07;2.40;;;3.80;99.90;;;;;;4978450;28;22594;-64
2021/04/08 05:11:43;;;;;;;4.40;1.70;;;3.90;99.90;;;;;;4976190;28;21237;-66
2021/04/08 05:14:29;;;;;;;4.03;1.60;;;3.80;99.90;;;;;;4975232;28;20945;-65
2021/04/08 05:16:54;;;;;;;7.53;1.93;;;3.90;99.90;;;;;;4978452;28;20532;-65
2021/04/08 05:19:21;;;;;;;8.10;2.20;;;3.80;99.90;;;;;;4975054;28;20679;-65
2021/04/08 05:21:48;;;;;;;4.63;1.80;;;3.80;99.90;;;;;;4972659;28;20398;-65
2021/04/08 05:24:16;;;;;;;2.97;1.40;;;3.90;99.90;;;;;;4944800;28;21725;-66
2021/04/08 05:26:42;;;;;;;4.90;1.60;;;3.90;99.90;;;;;;4973223;28;21784;-64
2021/04/08 05:29:09;;;;;;;8.23;1.93;;;3.90;99.90;;;;;;4962043;28;20723;-66
2021/04/08 05:31:37;;;;;;;6.77;2.63;;;3.90;99.90;;;;;;4975298;28;20292;-64
2021/04/08 05:34:03;;;;;;;9.90;2.10;;;4.00;99.90;;;;;;4970674;28;20785;-65
2021/04/08 05:36:29;;;;;;;5.90;1.77;;;3.90;99.90;;;;;;4969647;28;21471;-65
2021/04/08 05:38:54;;;;;;;5.13;1.80;;;4.00;99.90;;;;;;4967672;28;20613;-64
2021/04/08 05:41:20;;;;;;;4.97;1.77;;;3.90;99.90;;;;;;4966036;28;20197;-65
2021/04/08 05:43:46;;;;;;;8.80;2.47;;;4.00;99.90;;;;;;4954800;28;20235;-66
2021/04/08 05:46:14;;;;;;;10.87;2.07;;;3.90;99.90;;;;;;4954034;28;20316;-64
2021/04/08 05:48:42;;;;;;;8.47;2.37;;;3.90;99.90;;;;;;4965692;28;20193;-65
2021/04/08 05:51:08;;;;;;;6.40;1.87;;;3.90;99.90;;;;;;4960358;28;20671;-65
2021/04/08 05:53:34;;;;;;;4.67;1.70;;;3.90;99.90;;;;;;4963380;28;20632;-65
2021/04/08 05:55:59;;;;;;;5.87;1.90;;;4.00;99.90;;;;;;4944685;28;20718;-64
2021/04/08 05:58:27;;;;;;;4.70;2.27;;;4.10;99.90;;;;;;4954499;28;20209;-66
2021/04/08 06:00:53;;;;;;;4.40;1.90;;;4.10;99.90;;;;;;4964023;28;20216;-65
2021/04/08 06:03:19;;;;;;;6.53;1.80;;;4.10;99.90;;;;;;4954364;28;20674;-65
2021/04/08 06:05:44;;;;;;;4.43;2.13;;;4.10;99.90;;;;;;4949802;28;20777;-64
2021/04/08 06:08:10;;;;;;;4.67;1.70;;;4.00;99.90;;;;;;4957114;28;20229;-65
2021/04/08 06:10:35;;;;;;;3.10;1.70;;;4.00;99.90;;;;;;4956763;28;21076;-66
2021/04/08 06:13:01;;;;;;;8.63;2.30;;;4.10;99.90;;;;;;4943258;28;20264;-65
2021/04/08 06:15:31;;;;;;;4.60;1.87;;;4.00;99.90;;;;;;4934027;28;20185;-65
2021/04/08 06:17:56;;;;;;;4.80;1.90;;;4.00;99.90;;;;;;4955135;28;20369;-65
2021/04/08 06:20:24;;;;;;;11.37;2.13;;;4.00;99.90;;;;;;4942493;28;22293;-65
2021/04/08 06:22:53;;;;;;;7.07;1.90;;;4.00;99.90;;;;;;4942752;28;20251;-65
2021/04/08 06:25:19;;;;;;;4.37;1.60;;;4.00;99.90;;;;;;4958085;28;21351;-66
2021/04/08 06:27:45;;;;;;;4.50;3.00;;;4.00;99.90;;;;;;4946892;28;20682;-65
2021/04/08 06:30:11;;;;;;;4.70;2.13;;;4.00;99.90;;;;;;4953428;28;21372;-66
2021/04/08 06:32:38;;;;;;;6.33;2.20;;;4.10;99.90;;;;;;4955763;28;20326;-66
2021/04/08 06:35:05;;;;;;;4.57;2.03;;;4.10;99.90;;;;;;4972215;28;21353;-66
2021/04/08 06:37:30;;;;;;;4.60;2.40;;;4.20;99.90;;;;;;4970463;28;20744;-65
2021/04/08 06:39:56;;;;;;;5.83;2.00;;;4.20;99.90;;;;;;4955834;28;20622;-65
2021/04/08 06:42:22;;;;;;;6.60;2.10;;;4.20;99.90;;;;;;4947899;28;20256;-66
2021/04/08 06:44:53;;;;;;;4.47;2.63;;;4.30;99.90;;;;;;4965362;28;20705;-66
2021/04/08 06:48:04;;;;;;;4.47;2.23;;;4.20;99.90;;;;;;4955837;28;22235;-65
2021/04/08 06:50:38;;;;;;;2.83;1.70;;;4.30;99.90;;;;;;4886555;28;21314;-66
2021/04/08 06:53:06;;;;;;;4.17;1.90;;;4.40;99.90;;;;;;4935886;28;20644;-66
2021/04/08 06:55:32;;;;;;;9.03;2.30;;;4.40;99.90;;;;;;4957466;28;20794;-65
2021/04/08 06:57:59;;;;;;;8.17;2.30;;;4.50;99.90;;;;;;4938377;28;20659;-65
2021/04/08 07:00:25;;;;;;;5.03;2.17;;;4.50;99.90;;;;;;4957076;28;22150;-65
2021/04/08 07:02:51;;;;;;;4.80;2.00;;;4.60;99.90;;;;;;4958925;28;20807;-66
2021/04/08 07:05:17;;;;;;;6.27;1.73;;;4.70;99.90;;;;;;4955134;28;20826;-66
2021/04/08 07:07:42;;;;;;;4.20;1.83;;;4.80;99.90;;;;;;4965674;28;20569;-66
2021/04/08 07:10:08;;;;;;;10.50;2.13;;;4.80;99.90;;;;;;4943085;28;21883;-66
2021/04/08 07:12:34;;;;;;;4.50;1.90;;;4.90;99.90;;;;;;4957179;28;20331;-66
2021/04/08 07:15:00;;;;;;;5.93;2.07;;;4.90;99.90;;;;;;4948591;28;20196;-68
2021/04/08 07:17:26;;;;;;;4.90;2.30;;;4.90;99.90;;;;;;4964185;28;21200;-66
2021/04/08 07:19:55;;;;;;;5.50;1.93;;;5.00;99.90;;;;;;4960952;28;20178;-65
2021/04/08 07:22:21;;;;;;;6.23;1.90;;;5.00;99.90;;;;;;4983491;28;20798;-66
2021/04/08 07:24:49;;;;;;;4.47;1.77;;;5.10;99.90;;;;;;4967216;28;21175;-66
2021/04/08 07:27:20;;;;;;;4.73;2.43;;;5.10;99.90;;;;;;4957925;28;20629;-66
2021/04/08 07:29:52;;;;;;;6.63;2.13;;;5.20;99.90;;;;;;4956823;28;20807;-66
2021/04/08 07:32:26;;;;;;;7.97;2.07;;;5.00;99.90;;;;;;4952254;28;21746;-66
2021/04/08 07:35:01;;;;;;;5.30;1.93;;;5.00;99.90;;;;;;4962239;28;20613;-66
2021/04/08 07:37:36;;;;;;;5.20;2.07;;;5.00;99.90;;;;;;4955037;28;21363;-65
2021/04/08 07:40:12;;;;;;;5.07;2.00;;;5.00;99.90;;;;;;4962521;28;21261;-65
2021/04/08 07:42:38;;;;;;;5.47;1.70;;;5.00;99.90;;;;;;4956386;28;20834;-65
2021/04/08 07:45:06;;;;;;;7.00;2.27;;;5.00;99.90;;;;;;4973469;28;21722;-66
2021/04/08 07:47:34;;;;;;;5.80;1.70;;;4.90;99.90;;;;;;4957399;28;20452;-66
2021/04/08 07:50:06;;;;;;;5.93;1.73;;;4.90;99.90;;;;;;4959798;28;20647;-65
2021/04/08 07:52:43;;;;;;;7.87;1.97;;;4.90;99.90;;;;;;4952944;28;20735;-64
2021/04/08 07:55:18;;;;;;;4.73;1.87;;;4.90;99.90;;;;;;4972449;28;20679;-66
2021/04/08 07:58:06;;;;;;;4.80;1.70;;;5.10;99.90;;;;;;4950086;28;20698;-65
2021/04/08 08:00:49;;;;;;;6.00;2.10;;;5.20;99.90;;;;;;4947603;28;21003;-66
2021/04/08 08:03:24;;;;;;;5.77;1.83;;;5.30;99.90;;;;;;4958543;28;21319;-65
2021/04/08 08:05:51;;;;;;;4.10;2.40;;;5.30;99.90;;;;;;4947614;28;20622;-65
2021/04/08 08:08:25;;;;;;;9.97;2.90;;;5.20;99.90;;;;;;4950221;28;20717;-65
2021/04/08 08:11:00;;;;;;;4.53;2.07;;;5.30;99.90;;;;;;4943426;28;21189;-65
2021/04/08 08:13:49;;;;;;;3.60;2.17;;;5.20;99.90;;;;;;4962750;28;20686;-65
2021/04/08 08:16:25;;;;;;;3.43;2.30;;;5.40;99.90;;;;;;4947379;28;21366;-65
2021/04/08 08:18:52;;;;;;;8.33;2.30;;;5.50;99.90;;;;;;4934361;28;20619;-65
2021/04/08 08:21:36;;;;;;;7.00;2.30;;;5.40;99.90;;;;;;4939727;28;21291;-65
2021/04/08 08:24:07;;;;;;;5.97;2.07;;;5.50;99.90;;;;;;4974916;28;20737;-65
2021/04/08 08:26:36;;;;;;;4.50;2.10;;;5.50;99.90;;;;;;4988867;28;20653;-66
2021/04/08 08:29:11;;;;;;;10.20;3.00;;;5.60;99.90;;;;;;4953754;28;20705;-65
2021/04/08 08:31:54;;;;;;;4.70;2.10;;;5.60;99.90;;;;;;4967530;28;20647;-65
2021/04/08 08:34:21;;;;;;;5.27;2.00;;;5.60;99.90;;;;;;4981843;28;21117;-66
2021/04/08 08:36:50;;;;;;;4.50;2.90;;;5.80;99.90;;;;;;4968982;28;20791;-65
2021/04/08 08:39:19;;;;;;;6.30;1.93;;;5.70;99.90;;;;;;4978941;28;20705;-66
2021/04/08 08:41:46;;;;;;;4.93;2.00;;;5.80;99.90;;;;;;4967918;28;20639;-65
2021/04/08 08:44:13;;;;;;;5.60;2.23;;;5.90;99.90;;;;;;4995675;28;20655;-65
2021/04/08 08:46:44;;;;;;;6.20;2.13;;;5.90;99.90;;;;;;4978432;28;20664;-65
2021/04/08 08:49:15;;;;;;;6.07;2.40;;;5.80;99.90;;;;;;4974971;28;20586;-66
2021/04/08 08:51:41;;;;;;;4.40;2.07;;;5.80;99.90;;;;;;4976138;28;20626;-66
2021/04/08 08:54:07;;;;;;;6.20;2.90;;;5.80;99.90;;;;;;4979045;28;20715;-66
2021/04/08 08:56:34;;;;;;;6.03;2.40;;;5.90;99.90;;;;;;4987896;28;20251;-66
2021/04/08 08:59:00;;;;;;;7.57;3.27;;;6.00;99.90;;;;;;4963397;28;20623;-64
2021/04/08 09:01:26;;;;;;;7.67;3.37;;;6.00;99.90;;;;;;4989460;28;20626;-65
2021/04/08 09:03:51;;;;;;;7.03;3.60;;;6.00;99.90;;;;;;4993698;28;20491;-67
2021/04/08 09:06:22;;;;;;;5.93;3.00;;;6.00;99.90;;;;;;4981135;28;20538;-65
2021/04/08 09:08:53;;;;;;;6.60;2.83;;;6.10;99.90;;;;;;4977506;28;21237;-65
2021/04/08 09:11:29;;;;;;;5.53;2.43;;;6.10;99.90;;;;;;4977402;28;20635;-66
2021/04/08 09:13:56;;;;;;;9.13;2.50;;;6.20;99.90;;;;;;4974111;28;20643;-66
2021/04/08 09:16:22;;;;;;;7.47;2.93;;;6.20;99.90;;;;;;4980520;28;20974;-66
2021/04/08 09:19:09;;;;;;;3.30;2.30;;;6.50;99.90;;;;;;4986073;28;21243;-66
2021/04/08 09:21:44;;;;;;;3.97;2.60;;;6.60;99.90;;;;;;4978446;28;20188;-66
2021/04/08 09:24:15;;;;;;;2.90;2.10;;;6.70;99.90;;;;;;4972497;28;20696;-65
2021/04/08 09:26:43;;;;;;;5.87;2.10;;;6.80;99.90;;;;;;4966282;28;20652;-67
2021/04/08 09:29:10;;;;;;;4.20;2.53;;;6.90;99.90;;;;;;4966702;28;20652;-65
2021/04/08 09:31:36;;;;;;;5.27;1.77;;;6.90;99.90;;;;;;4954837;28;20670;-65
2021/04/08 09:34:05;;;;;;;4.33;1.60;;;6.90;99.90;;;;;;4960895;28;20746;-65
2021/04/08 09:36:35;;;;;;;7.63;2.03;;;6.80;99.90;;;;;;4962768;28;20711;-65
2021/04/08 09:39:01;;;;;;;2.67;1.20;;;6.80;99.90;;;;;;4957955;28;20619;-65
2021/04/08 09:41:49;;;;;;;3.83;1.50;;;6.70;99.90;;;;;;4954533;28;20648;-65
2021/04/08 09:44:16;;;;;;;2.40;1.63;;;6.70;99.90;;;;;;4973089;28;20674;-66
2021/04/08 09:46:44;;;;;;;5.30;1.33;;;6.70;99.90;;;;;;4961179;28;21293;-66
2021/04/08 09:49:10;;;;;;;3.17;1.80;;;6.80;99.90;;;;;;4957663;28;20620;-66
2021/04/08 09:51:44;;;;;;;5.57;1.50;;;6.90;99.90;;;;;;4948152;28;21723;-65
2021/04/08 09:54:14;;;;;;;2.60;1.70;;;6.90;99.90;;;;;;4969305;28;20599;-65
2021/04/08 09:56:40;;;;;;;7.40;2.07;;;6.90;99.90;;;;;;4955997;28;20638;-65
2021/04/08 09:59:05;;;;;;;2.37;1.20;;;7.00;99.90;;;;;;4968252;28;20688;-65
2021/04/08 10:01:31;;;;;;;4.57;1.67;;;7.00;99.90;;;;;;4949901;28;20189;-66
2021/04/08 10:03:56;;;;;;;1.97;1.50;;;6.90;99.90;;;;;;4954956;28;20239;-66
2021/04/08 10:06:24;;;;;;;4.93;1.70;;;6.70;99.90;;;;;;4957618;28;20216;-66
2021/04/08 10:08:51;;;;;;;1.83;1.50;;;6.60;99.90;;;;;;4957816;28;20192;-65
2021/04/08 10:11:29;;;;;;;2.70;1.10;;;6.40;99.90;;;;;;4974522;28;20783;-67
2021/04/08 10:13:55;;;;;;;3.33;1.17;;;6.00;99.90;;;;;;4968560;28;22057;-65
2021/04/08 10:16:21;;;;;;;2.07;1.53;;;5.80;99.90;;;;;;4960346;28;20720;-63
2021/04/08 10:18:46;;;;;;;1.23;0.90;;;5.50;99.90;;;;;;4965681;28;23204;-64
2021/04/08 10:21:17;;;;;;;3.47;1.13;;;5.40;99.90;;;;;;4970377;28;20636;-64
2021/04/08 10:23:44;;;;;;;1.43;0.67;;;5.30;99.90;;;;;;4967665;28;20220;-65
2021/04/08 10:26:14;;;;;;;1.80;0.90;;;5.30;99.90;;;;;;4968093;28;20744;-64
2021/04/08 10:28:45;;;;;;;1.30;0.83;;;5.50;99.90;;;;;;4952266;28;21316;-66
2021/04/08 10:31:15;;;;;;;2.00;1.20;;;5.50;99.90;;;;;;4956228;28;20651;-64
2021/04/08 10:33:41;;;;;;;9.37;1.40;;;5.70;99.90;;;;;;4962213;28;20647;-64
2021/04/08 10:36:07;;;;;;;2.30;1.40;;;5.90;99.90;;;;;;4944256;28;20706;-66
2021/04/08 10:38:33;;;;;;;1.10;1.00;;;6.00;99.90;;;;;;4968215;28;20280;-67
2021/04/08 10:41:00;;;;;;;3.90;1.40;;;6.10;99.90;;;;;;4949085;28;20647;-65
2021/04/08 10:43:25;;;;;;;3.70;1.30;;;6.20;99.90;;;;;;4962328;28;20235;-64
2021/04/08 10:45:56;;;;;;;1.70;1.07;;;6.30;99.90;;;;;;4975401;28;20929;-65
2021/04/08 10:48:23;;;;;;;2.10;1.20;;;6.50;99.90;;;;;;4976190;28;20192;-65
2021/04/08 10:50:49;;;;;;;2.93;1.47;;;6.70;99.90;;;;;;4975011;28;22711;-63
2021/04/08 10:53:25;;;;;;;2.50;1.33;;;6.80;99.90;;;;;;4973155;28;20781;-64
2021/04/08 10:55:51;;;;;;;2.20;1.43;;;6.90;99.90;;;;;;4969409;28;20729;-65
2021/04/08 10:58:35;;;;;;;1.93;1.40;;;7.10;99.90;;;;;;4970336;28;20625;-65
2021/04/08 11:01:01;;;;;;;3.60;1.50;;;7.10;99.90;;;;;;4969961;28;20591;-65
2021/04/08 11:03:26;;;;;;;1.30;1.20;;;7.10;99.90;;;;;;4967955;28;22949;-65
2021/04/08 11:05:52;;;;;;;3.80;1.40;;;7.10;99.90;;;;;;4981903;28;20960;-66
2021/04/08 11:08:18;;;;;;;2.83;1.20;;;7.20;99.90;;;;;;4970120;28;20665;-65
2021/04/08 11:10:44;;;;;;;2.60;1.40;;;7.30;99.90;;;;;;4978414;28;20216;-65
2021/04/08 11:13:11;;;;;;;1.83;1.30;;;7.20;99.90;;;;;;4966278;28;21066;-64
2021/04/08 11:15:44;;;;;;;1.90;1.00;;;7.20;99.90;;;;;;4981467;28;20184;-66
2021/04/08 11:18:13;;;;;;;2.50;1.10;;;7.30;99.90;;;;;;4981236;28;21530;-66
2021/04/08 11:20:42;;;;;;;1.70;0.87;;;7.30;99.90;;;;;;4980883;28;21054;-65
2021/04/08 11:23:09;;;;;;;3.20;1.07;;;7.20;99.90;;;;;;4979485;28;20648;-66
2021/04/08 11:25:36;;;;;;;1.97;1.40;;;7.30;99.90;;;;;;4981280;28;21030;-64
2021/04/08 11:28:04;;;;;;;2.00;1.07;;;7.40;99.90;;;;;;4981808;28;20746;-65
2021/04/08 11:30:38;;;;;;;2.97;1.30;;;7.50;99.90;;;;;;4979695;28;20772;-66
2021/04/08 11:33:08;;;;;;;2.70;0.90;;;7.50;99.90;;;;;;4968970;28;20668;-66
2021/04/08 11:35:39;;;;;;;2.43;0.90;;;7.50;99.90;;;;;;4957143;28;20631;-67
2021/04/08 11:38:14;;;;;;;3.87;1.73;;;7.40;99.90;;;;;;4979713;28;20660;-66
2021/04/08 11:41:00;;;;;;;2.30;0.90;;;7.40;99.90;;;;;;4981356;28;20725;-66
2021/04/08 11:43:29;;;;;;;1.97;1.00;;;7.40;99.90;;;;;;4976877;28;20765;-64
2021/04/08 11:46:00;;;;;;;4.33;1.10;;;7.30;99.90;;;;;;4967236;28;20643;-67
2021/04/08 11:48:38;;;;;;;5.20;1.40;;;7.20;99.90;;;;;;4967063;28;20652;-63
2021/04/08 11:51:06;;;;;;;1.80;1.43;;;7.20;99.90;;;;;;4984656;28;20738;-64
2021/04/08 11:53:36;;;;;;;2.90;1.60;;;7.10;99.90;;;;;;4963653;28;20676;-64
2021/04/08 11:56:03;;;;;;;3.07;1.50;;;7.10;99.90;;;;;;4965756;28;20623;-63
2021/04/08 11:58:31;;;;;;;5.30;1.80;;;7.10;99.90;;;;;;4977060;28;20930;-67
2021/04/08 12:01:32;;;;;;;1.90;1.67;;;7.00;99.90;;;;;;4978735;28;20631;-63
2021/04/08 12:04:08;;;;;;;5.33;2.17;;;7.00;99.90;;;;;;4980518;28;20665;-65
2021/04/08 12:06:44;;;;;;;2.80;2.00;;;7.00;99.90;;;;;;4973799;28;21310;-65
2021/04/08 12:09:09;;;;;;;2.63;1.67;;;7.00;99.90;;;;;;4981038;28;20777;-65
2021/04/08 12:11:54;;;;;;;2.93;1.50;;;7.00;99.90;;;;;;4998031;28;20664;-66
2021/04/08 12:14:21;;;;;;;3.93;1.70;;;7.20;99.90;;;;;;4974366;28;20189;-65
2021/04/08 12:17:07;;;;;;;2.00;1.50;;;7.30;99.90;;;;;;4987218;28;20772;-63
2021/04/08 12:19:34;;;;;;;3.17;1.60;;;7.40;99.90;;;;;;4998903;28;21257;-65
2021/04/08 12:22:05;;;;;;;4.70;1.70;;;7.60;99.90;;;;;;5006545;28;20676;-68
2021/04/08 12:24:31;;;;;;;4.40;1.70;;;7.80;99.90;;;;;;5008013;28;21111;-66
2021/04/08 12:26:57;;;;;;;1.80;1.40;;;7.90;99.90;;;;;;5007141;28;22314;-66
2021/04/08 12:29:25;;;;;;;1.80;1.53;;;8.20;99.90;;;;;;4992559;28;20730;-66
2021/04/08 12:31:53;;;;;;;3.77;1.70;;;8.30;99.90;;;;;;5006219;28;20657;-67
2021/04/08 12:34:20;;;;;;;3.43;1.80;;;8.40;99.90;;;;;;4996383;28;20671;-66
2021/04/08 12:36:47;;;;;;;2.00;1.50;;;8.40;99.90;;;;;;5003642;28;21268;-66
2021/04/08 12:39:12;;;;;;;4.97;1.80;;;8.20;99.90;;;;;;4989903;28;20616;-65
2021/04/08 12:41:38;;;;;;;3.90;2.00;;;8.20;99.90;;;;;;5002548;28;20945;-66
2021/04/08 12:44:05;;;;;;;3.43;1.83;;;8.10;99.90;;;;;;5006149;28;20192;-67
2021/04/08 12:46:30;;;;;;;3.23;2.00;;;8.10;99.90;;;;;;5005263;28;20396;-65
2021/04/08 12:48:56;;;;;;;3.93;1.80;;;8.00;99.90;;;;;;5001874;28;20657;-67
2021/04/08 12:51:22;;;;;;;2.30;1.70;;;8.00;99.90;;;;;;4999554;28;20937;-67
2021/04/08 12:53:47;;;;;;;3.67;1.90;;;7.90;99.90;;;;;;4999683;28;20185;-67
2021/04/08 12:56:14;;;;;;;1.77;1.67;;;8.00;99.90;;;;;;5001553;28;20285;-68
2021/04/08 12:58:40;;;;;;;2.93;1.40;;;8.00;99.90;;;;;;4990003;28;20304;-67
2021/04/08 13:01:06;;;;;;;2.00;1.37;;;8.00;99.90;;;;;;4997363;28;20686;-71
2021/04/08 13:03:31;;;;;;;3.47;1.60;;;8.00;99.90;;;;;;4992773;28;20741;-66
2021/04/08 13:05:57;;;;;;;3.37;1.27;;;8.10;99.90;;;;;;5004855;28;20690;-66
2021/04/08 13:08:24;;;;;;;3.17;1.63;;;8.00;99.90;;;;;;5005785;28;20196;-66
2021/04/08 13:10:50;;;;;;;2.17;1.53;;;8.00;99.90;;;;;;5004684;28;20782;-66
2021/04/08 13:13:15;;;;;;;3.70;1.73;;;8.00;99.90;;;;;;5000543;28;20712;-66
2021/04/08 13:15:41;;;;;;;5.57;1.67;;;8.10;99.90;;;;;;4997441;28;20208;-66
2021/04/08 13:18:07;;;;;;;5.60;1.93;;;8.20;99.90;;;;;;5019395;28;20224;-66
2021/04/08 13:20:33;;;;;;;3.07;1.70;;;8.20;99.90;;;;;;5017979;28;22293;-66
2021/04/08 13:23:01;;;;;;;5.53;1.53;;;8.30;99.90;;;;;;5002261;28;20810;-66
2021/04/08 13:25:27;;;;;;;2.20;1.60;;;8.30;99.90;;;;;;4996102;28;21432;-70